createdAt,value
2023-04-04T00:01:05.516Z,72.84
2023-04-04T00:06:37.331Z,72.89
2023-04-04T00:12:08.941Z,72.96
2023-04-04T00:17:40.686Z,72.47
2023-04-04T00:23:12.562Z,72.04
2023-04-04T00:28:44.188Z,73.31
2023-04-04T00:34:15.891Z,73.63
2023-04-04T00:39:47.631Z,73.97
2023-04-04T00:45:19.370Z,74.32
2023-04-04T00:50:57.514Z,75.51
2023-04-04T00:56:29.151Z,75.38
2023-04-04T01:02:00.951Z,76.13
2023-04-04T01:07:35.389Z,76.64
2023-04-04T01:13:04.351Z,77.58
2023-04-04T01:18:35.992Z,77.4
2023-04-04T01:24:07.772Z,77.71
2023-04-04T01:29:39.538Z,76.88
2023-04-04T01:35:11.297Z,77.31
2023-04-04T01:40:43.164Z,77.83
2023-04-04T01:46:14.789Z,77.69
2023-04-04T01:51:50.827Z,78.42
2023-04-04T01:57:22.578Z,78.49
2023-04-04T02:02:54.247Z,78.34
2023-04-04T02:08:25.939Z,78.54
2023-04-04T02:13:57.699Z,78.75
2023-04-04T02:19:29.417Z,78.73
2023-04-04T02:25:01.253Z,78.67
2023-04-04T02:30:32.941Z,79.55
2023-04-04T02:36:04.647Z,79.5
2023-04-04T02:41:36.305Z,79.9
2023-04-04T02:47:08.127Z,80.03
2023-04-04T02:52:46.306Z,80.54
2023-04-04T02:58:17.904Z,80.22
2023-04-04T03:03:50.780Z,80.72
2023-04-04T03:09:21.303Z,79.57
2023-04-04T03:14:53.029Z,79.32
2023-04-04T03:20:24.823Z,79.68
2023-04-04T03:25:56.958Z,79.1
2023-04-04T03:31:28.352Z,79.13
2023-04-04T03:36:59.959Z,79.35
2023-04-04T03:42:31.862Z,79.25
2023-04-04T03:48:03.545Z,79.11
2023-04-04T03:53:41.529Z,79.35
2023-04-04T03:59:13.365Z,79.46
2023-04-04T04:04:45.802Z,79.79
2023-04-04T04:10:16.705Z,79.98
2023-04-04T04:15:48.579Z,80.22
2023-04-04T04:21:20.139Z,79.96
2023-04-04T04:26:51.886Z,79.7
2023-04-04T04:32:23.605Z,80.07
2023-04-04T04:37:55.331Z,79.98
2023-04-04T04:43:27.084Z,80.01
2023-04-04T04:48:58.908Z,80.62
2023-04-04T04:54:34.926Z,80.59
2023-04-04T05:00:06.721Z,80.11
2023-04-04T05:05:38.177Z,79.82
2023-04-04T05:11:10.056Z,80.05
2023-04-04T05:16:41.867Z,80.12
2023-04-04T05:22:13.512Z,80.33
2023-04-04T05:27:45.595Z,79.36
2023-04-04T05:33:16.943Z,79.42
2023-04-04T05:38:48.665Z,79.7
2023-04-04T05:44:20.372Z,79.89
2023-04-04T05:49:52.157Z,78.94
2023-04-04T05:55:30.320Z,79.42
2023-04-04T06:01:02.080Z,78.31
2023-04-04T06:06:33.736Z,77.5
2023-04-04T06:12:05.687Z,77.01
2023-04-04T06:17:37.197Z,76.13
2023-04-04T06:23:09.059Z,74.49
2023-04-04T06:28:40.759Z,73.49
2023-04-04T06:34:12.385Z,73.06
2023-04-04T06:39:44.057Z,73.1
2023-04-04T06:45:15.835Z,70.41
2023-04-04T06:50:47.574Z,70.34
2023-04-04T06:56:25.748Z,70.03
2023-04-04T07:01:57.471Z,68.54
2023-04-04T07:07:29.277Z,68.14
2023-04-04T07:13:01.074Z,68.98
2023-04-04T07:18:32.647Z,67.11
2023-04-04T07:24:04.487Z,67.41
2023-04-04T07:29:36.177Z,66.49
2023-04-04T07:35:07.761Z,66.52
2023-04-04T07:40:39.958Z,66.38
2023-04-04T07:46:11.334Z,65.67
2023-04-04T07:51:43.289Z,64.18
2023-04-04T07:57:19.142Z,64.56
2023-04-04T08:02:51.000Z,63.35
2023-04-04T08:08:22.446Z,62.76
2023-04-04T08:13:54.827Z,63.04
2023-04-04T08:19:25.862Z,61.87
2023-04-04T08:24:57.634Z,62.1
2023-04-04T08:30:29.510Z,61.65
2023-04-04T08:36:01.210Z,61.26
2023-04-04T08:41:32.866Z,60.4
2023-04-04T08:47:04.715Z,60.65
2023-04-04T08:52:36.309Z,62.05
2023-04-04T08:58:14.592Z,60.11
2023-04-04T09:03:46.287Z,61.92
2023-04-04T09:09:17.860Z,61.15
2023-04-04T09:14:49.929Z,59.62
2023-04-04T09:20:21.390Z,58.96
2023-04-04T09:26:04.769Z,59.21
2023-04-04T09:31:24.916Z,60.32
2023-04-04T09:36:56.817Z,59.31
2023-04-04T09:42:28.174Z,58.63
2023-04-04T09:48:00.090Z,57.82
2023-04-04T09:53:31.624Z,58.16
2023-04-04T09:59:07.977Z,57.91
2023-04-04T10:04:39.541Z,56.31
2023-04-04T10:10:12.318Z,58.7
2023-04-04T10:15:42.986Z,58.93
2023-04-04T10:21:16.292Z,58.08
2023-04-04T10:26:46.309Z,59.27
2023-04-04T10:32:17.998Z,56.36
2023-04-04T10:37:49.818Z,57.32
2023-04-04T10:43:22.402Z,57.96
2023-04-04T10:48:53.206Z,58.76
2023-04-04T10:54:25.011Z,55.3
2023-04-04T11:00:01.896Z,55.0
2023-04-04T11:05:32.782Z,60.17
2023-04-04T11:11:22.215Z,54.34
2023-04-04T11:16:36.404Z,58.79
2023-04-04T11:22:08.001Z,56.18
2023-04-04T11:27:39.835Z,57.55
2023-04-04T11:33:11.672Z,57.86
2023-04-04T11:38:43.134Z,56.46
2023-04-04T11:44:14.910Z,56.42
2023-04-04T11:49:46.686Z,55.26
2023-04-04T11:55:18.499Z,53.1
2023-04-04T12:00:55.007Z,54.09
2023-04-04T12:06:26.108Z,54.67
2023-04-04T12:11:57.924Z,57.85
2023-04-04T12:17:29.483Z,56.11
2023-04-04T12:23:01.368Z,53.72
2023-04-04T12:28:32.950Z,53.61
2023-04-04T12:34:04.636Z,54.81
2023-04-04T12:39:36.325Z,55.33
2023-04-04T12:45:08.014Z,53.94
2023-04-04T12:50:39.769Z,56.4
2023-04-04T12:56:11.498Z,52.99
2023-04-04T13:01:50.107Z,53.5
2023-04-04T13:07:21.329Z,51.66
2023-04-04T13:12:53.166Z,52.63
2023-04-04T13:18:24.800Z,52.01
2023-04-04T13:23:56.640Z,57.59
2023-04-04T13:29:28.353Z,51.87
2023-04-04T13:35:00.200Z,52.04
2023-04-04T13:40:32.541Z,51.37
2023-04-04T13:46:03.651Z,53.59
2023-04-04T13:51:35.353Z,53.3
2023-04-04T13:57:07.090Z,52.48
2023-04-04T14:02:43.308Z,52.96
2023-04-04T14:08:15.084Z,56.91
2023-04-04T14:13:46.820Z,52.34
2023-04-04T14:19:18.341Z,52.83
2023-04-04T14:24:50.039Z,54.75
2023-04-04T14:30:21.885Z,54.39
2023-04-04T14:35:53.530Z,52.75
2023-04-04T14:41:25.194Z,53.84
2023-04-04T14:46:57.065Z,53.41
2023-04-04T14:52:28.689Z,53.53
2023-04-04T14:58:03.334Z,53.58
2023-04-04T15:03:38.533Z,53.45
2023-04-04T15:09:10.253Z,56.41
2023-04-04T15:14:41.869Z,54.18
2023-04-04T15:20:13.608Z,54.15
2023-04-04T15:25:45.495Z,53.64
2023-04-04T15:31:17.144Z,55.45
2023-04-04T15:36:48.961Z,54.18
2023-04-04T15:42:20.595Z,55.75
2023-04-04T15:47:52.386Z,53.96
2023-04-04T15:53:24.041Z,54.27
2023-04-04T15:58:55.869Z,55.01
2023-04-04T16:04:31.823Z,54.49
2023-04-04T16:10:03.678Z,53.77
2023-04-04T16:15:36.172Z,54.57
2023-04-04T16:21:07.093Z,55.72
2023-04-04T16:26:38.718Z,56.45
2023-04-04T16:32:10.621Z,55.9
2023-04-04T16:37:42.165Z,56.08
2023-04-04T16:43:13.978Z,56.58
2023-04-04T16:48:45.706Z,56.48
2023-04-04T16:54:17.360Z,57.26
2023-04-04T16:59:49.082Z,57.09
2023-04-04T17:05:25.263Z,57.68
2023-04-04T17:10:56.894Z,58.39
2023-04-04T17:16:28.713Z,59.06
2023-04-04T17:22:00.200Z,59.67
2023-04-04T17:27:32.085Z,60.73
2023-04-04T17:33:03.925Z,61.64
2023-04-04T17:38:35.521Z,61.48
2023-04-04T17:44:07.298Z,60.39
2023-04-04T17:49:39.219Z,61.16
2023-04-04T17:55:10.660Z,60.52
2023-04-04T18:00:42.600Z,62.08
2023-04-04T18:06:19.250Z,61.76
2023-04-04T18:11:50.374Z,61.94
2023-04-04T18:17:21.767Z,63.86
2023-04-04T18:22:53.621Z,62.84
2023-04-04T18:28:25.322Z,65.07
2023-04-04T18:33:57.054Z,62.58
2023-04-04T18:39:28.812Z,62.75
2023-04-04T18:45:00.879Z,64.12
2023-04-04T18:50:32.284Z,66.04
2023-04-04T18:56:03.956Z,65.98
2023-04-04T19:01:35.927Z,67.65
2023-04-04T19:07:11.880Z,68.26
2023-04-04T19:12:43.423Z,69.33
2023-04-04T19:18:15.405Z,69.36
2023-04-04T19:23:46.949Z,70.16
2023-04-04T19:29:18.607Z,70.77
2023-04-04T19:34:50.537Z,70.96
2023-04-04T19:40:22.589Z,71.24
2023-04-04T19:45:53.998Z,71.0
2023-04-04T19:51:25.591Z,71.65
2023-04-04T19:56:57.274Z,71.03
2023-04-04T20:02:29.517Z,70.62
2023-04-04T20:08:05.072Z,71.12
2023-04-04T20:13:36.849Z,70.66
2023-04-04T20:19:08.887Z,72.26
2023-04-04T20:24:40.396Z,71.78
2023-04-04T20:30:12.002Z,72.36
2023-04-04T20:35:43.874Z,71.97
2023-04-04T20:41:15.523Z,72.01
2023-04-04T20:46:47.314Z,72.0
2023-04-04T20:52:18.971Z,71.88
2023-04-04T20:57:50.634Z,71.3
2023-04-04T21:03:22.413Z,71.34
2023-04-04T21:08:58.491Z,71.62
2023-04-04T21:14:30.177Z,71.96
2023-04-04T21:20:02.343Z,71.69
2023-04-04T21:25:33.741Z,71.77
2023-04-04T21:31:05.534Z,72.11
2023-04-04T21:36:37.226Z,71.21
2023-04-04T21:42:09.637Z,71.52
2023-04-04T21:47:40.702Z,72.41
2023-04-04T21:53:12.999Z,72.23
2023-04-04T21:58:44.287Z,72.3
2023-04-04T22:04:15.889Z,72.72
2023-04-04T22:09:51.896Z,73.19
2023-04-04T22:15:23.638Z,73.33
2023-04-04T22:20:55.478Z,73.38
2023-04-04T22:26:27.170Z,73.19
2023-04-04T22:31:58.890Z,73.26
2023-04-04T22:37:30.964Z,73.55
2023-04-04T22:43:02.370Z,73.77
2023-04-04T22:48:34.062Z,73.8
2023-04-04T22:54:05.806Z,74.25
2023-04-04T22:59:37.461Z,73.97
2023-04-04T23:05:09.502Z,74.85
2023-04-04T23:10:45.110Z,74.61
2023-04-04T23:16:17.230Z,74.85
2023-04-04T23:21:48.777Z,75.42
2023-04-04T23:27:21.047Z,75.35
2023-04-04T23:32:52.219Z,75.89
2023-04-04T23:38:23.919Z,75.97
2023-04-04T23:43:55.657Z,75.9
2023-04-04T23:49:27.397Z,75.29
2023-04-04T23:54:59.179Z,75.71
